createdAt,value
2018-04-16T00:00:31.408Z,13.88
2018-04-16T00:01:31.395Z,13.87
2018-04-16T00:02:31.397Z,13.81
2018-04-16T00:03:31.380Z,13.82
2018-04-16T00:04:31.392Z,13.88
2018-04-16T00:05:31.385Z,13.75
2018-04-16T00:06:31.367Z,13.78
2018-04-16T00:07:31.105Z,13.75
2018-04-16T00:08:31.370Z,13.82
2018-04-16T00:09:30.840Z,13.73
2018-04-16T00:10:31.397Z,13.81
2018-04-16T00:11:31.337Z,13.78
2018-04-16T00:12:31.330Z,13.77
2018-04-16T00:13:31.331Z,13.73
2018-04-16T00:14:31.329Z,13.71
2018-04-16T00:15:31.318Z,13.73
2018-04-16T00:16:31.050Z,13.73
2018-04-16T00:17:31.301Z,13.7
2018-04-16T00:18:31.290Z,13.73
2018-04-16T00:19:31.031Z,13.77
2018-04-16T00:20:31.311Z,13.77
2018-04-16T00:21:31.025Z,13.73
2018-04-16T00:22:30.762Z,13.73
2018-04-16T00:23:31.006Z,13.71
2018-04-16T00:24:31.265Z,13.71
2018-04-16T00:25:31.252Z,13.81
2018-04-16T00:26:31.247Z,13.73
2018-04-16T00:27:30.983Z,13.73
2018-04-16T00:28:31.240Z,13.87
2018-04-16T00:29:31.224Z,13.77
2018-04-16T00:30:31.216Z,13.84
2018-04-16T00:31:31.224Z,13.77
2018-04-16T00:32:30.970Z,13.73
2018-04-16T00:33:31.243Z,13.81
2018-04-16T00:34:31.197Z,13.77
2018-04-16T00:35:31.192Z,13.82
2018-04-16T00:36:31.193Z,13.84
2018-04-16T00:37:30.929Z,13.85
2018-04-16T00:38:31.168Z,13.84
2018-04-16T00:39:30.930Z,13.84
2018-04-16T00:40:31.160Z,13.84
2018-04-16T00:41:31.150Z,13.89
2018-04-16T00:42:31.146Z,13.88
2018-04-16T00:43:30.890Z,13.85
2018-04-16T00:44:30.879Z,13.92
2018-04-16T00:45:31.125Z,13.91
2018-04-16T00:46:31.130Z,13.88
2018-04-16T00:47:31.135Z,13.95
2018-04-16T00:48:31.106Z,13.91
2018-04-16T00:49:30.855Z,13.87
2018-04-16T00:50:31.096Z,13.95
2018-04-16T00:51:31.091Z,13.88
2018-04-16T00:52:31.084Z,13.88
2018-04-16T00:53:31.082Z,13.87
2018-04-16T00:54:31.072Z,13.88
2018-04-16T00:55:30.815Z,13.81
2018-04-16T00:56:30.808Z,13.85
2018-04-16T00:57:30.800Z,13.82
2018-04-16T00:58:31.102Z,13.79
2018-04-16T00:59:31.047Z,13.87
2018-04-16T01:00:31.039Z,13.84
2018-04-16T01:01:31.039Z,13.84
2018-04-16T01:02:31.027Z,13.87
2018-04-16T01:03:30.764Z,13.87
2018-04-16T01:04:30.760Z,13.85
2018-04-16T01:05:31.004Z,13.82
2018-04-16T01:06:31.002Z,13.88
2018-04-16T01:07:30.997Z,13.87
2018-04-16T01:08:31.000Z,13.87
2018-04-16T01:09:30.990Z,13.84
2018-04-16T01:10:30.986Z,13.81
2018-04-16T01:11:30.967Z,13.82
2018-04-16T01:12:30.962Z,13.7
2018-04-16T01:13:30.957Z,13.84
2018-04-16T01:14:30.717Z,13.87
2018-04-16T01:15:30.689Z,13.71
2018-04-16T01:16:30.941Z,13.82
2018-04-16T01:17:30.931Z,13.78
2018-04-16T01:18:30.926Z,13.73
2018-04-16T01:19:30.414Z,13.73
2018-04-16T01:20:30.919Z,13.77
2018-04-16T01:21:30.915Z,13.78
2018-04-16T01:22:30.903Z,13.75
2018-04-16T01:23:30.899Z,13.87
2018-04-16T01:24:30.642Z,13.75
2018-04-16T01:25:30.885Z,13.78
2018-04-16T01:26:30.880Z,13.77
2018-04-16T01:27:30.871Z,13.75
2018-04-16T01:28:30.870Z,13.75
2018-04-16T01:29:30.607Z,13.73
2018-04-16T01:30:30.854Z,13.73
2018-04-16T01:31:30.596Z,13.64
2018-04-16T01:32:30.845Z,13.67
2018-04-16T01:33:30.585Z,13.67
2018-04-16T01:34:30.577Z,13.66
2018-04-16T01:35:30.320Z,13.62
2018-04-16T01:36:30.829Z,13.63
2018-04-16T01:37:30.812Z,13.6
2018-04-16T01:38:30.556Z,13.64
2018-04-16T01:39:30.800Z,13.64
2018-04-16T01:40:30.803Z,13.54
2018-04-16T01:41:30.801Z,13.57
2018-04-16T01:42:30.782Z,13.6
2018-04-16T01:43:30.777Z,13.51
2018-04-16T01:44:30.525Z,13.57
2018-04-16T01:45:30.765Z,13.59
2018-04-16T01:46:30.509Z,13.48
2018-04-16T01:47:30.758Z,13.49
2018-04-16T01:48:30.759Z,13.54
2018-04-16T01:49:30.744Z,13.59
2018-04-16T01:50:30.739Z,13.52
2018-04-16T01:51:30.728Z,13.59
2018-04-16T01:52:30.522Z,13.52
2018-04-16T01:53:30.763Z,13.55
2018-04-16T01:54:30.713Z,13.63
2018-04-16T01:55:30.703Z,13.54
2018-04-16T01:56:30.701Z,13.55
2018-04-16T01:57:30.699Z,13.59
2018-04-16T01:58:30.438Z,13.63
2018-04-16T01:59:30.425Z,13.63
2018-04-16T02:00:30.418Z,13.64
2018-04-16T02:01:30.676Z,13.63
2018-04-16T02:02:30.667Z,13.62
2018-04-16T02:03:30.654Z,13.7
2018-04-16T02:04:30.655Z,13.66
2018-04-16T02:05:30.134Z,13.66
2018-04-16T02:06:30.381Z,13.67
2018-04-16T02:07:30.383Z,13.69
2018-04-16T02:08:30.368Z,13.7
2018-04-16T02:09:30.367Z,13.6
2018-04-16T02:10:30.356Z,13.67
2018-04-16T02:11:30.416Z,13.67
2018-04-16T02:12:30.604Z,13.67
2018-04-16T02:13:30.341Z,13.6
2018-04-16T02:14:30.080Z,13.63
2018-04-16T02:15:30.586Z,13.62
2018-04-16T02:16:30.573Z,13.71
2018-04-16T02:17:30.313Z,13.71
2018-04-16T02:18:30.308Z,13.73
2018-04-16T02:19:30.308Z,13.73
2018-04-16T02:20:30.322Z,13.75
2018-04-16T02:21:30.299Z,13.82
2018-04-16T02:22:30.291Z,13.77
2018-04-16T02:23:30.542Z,13.79
2018-04-16T02:24:30.270Z,13.7
2018-04-16T02:25:30.523Z,13.75
2018-04-16T02:26:30.531Z,13.79
2018-04-16T02:27:30.508Z,13.77
2018-04-16T02:28:30.263Z,13.73
2018-04-16T02:29:30.241Z,13.73
2018-04-16T02:30:30.488Z,13.73
2018-04-16T02:31:30.481Z,13.85
2018-04-16T02:32:30.475Z,13.82
2018-04-16T02:33:30.221Z,13.84
2018-04-16T02:34:30.490Z,13.85
2018-04-16T02:35:30.463Z,13.85
2018-04-16T02:36:30.469Z,13.87
2018-04-16T02:37:30.460Z,13.91
2018-04-16T02:38:30.439Z,13.89
2018-04-16T02:39:29.926Z,13.82
2018-04-16T02:40:30.427Z,13.87
2018-04-16T02:41:30.179Z,13.88
2018-04-16T02:42:30.423Z,13.99
2018-04-16T02:43:30.416Z,13.88
2018-04-16T02:44:30.411Z,13.88
2018-04-16T02:45:30.405Z,13.87
2018-04-16T02:46:30.139Z,13.91
2018-04-16T02:47:30.139Z,13.88
2018-04-16T02:48:30.399Z,13.88
2018-04-16T02:49:30.118Z,13.99
2018-04-16T02:50:30.126Z,13.95
2018-04-16T02:51:29.856Z,13.96
2018-04-16T02:52:30.357Z,14
2018-04-16T02:53:30.348Z,14.02
2018-04-16T02:54:30.345Z,13.99
2018-04-16T02:55:30.399Z,13.87
2018-04-16T02:56:30.094Z,13.92
2018-04-16T02:57:30.323Z,13.88
2018-04-16T02:58:30.325Z,13.91
2018-04-16T02:59:30.365Z,13.91
2018-04-16T03:00:30.313Z,14
2018-04-16T03:01:30.306Z,13.91
2018-04-16T03:02:30.300Z,14
2018-04-16T03:03:30.295Z,13.95
2018-04-16T03:04:30.286Z,14.06
2018-04-16T03:05:30.284Z,14.02
2018-04-16T03:06:30.271Z,13.97
2018-04-16T03:07:30.025Z,13.97
2018-04-16T03:08:30.267Z,14.1
2018-04-16T03:09:30.256Z,14.07
2018-04-16T03:10:30.252Z,14.04
2018-04-16T03:11:29.989Z,14.12
2018-04-16T03:12:29.985Z,14.14
2018-04-16T03:13:30.234Z,14.1
2018-04-16T03:14:29.719Z,14.06
2018-04-16T03:15:30.218Z,14.12
2018-04-16T03:16:30.214Z,14.1
2018-04-16T03:17:30.211Z,14.15
2018-04-16T03:18:30.201Z,14.17
2018-04-16T03:19:30.203Z,14.2
2018-04-16T03:20:29.938Z,14.21
2018-04-16T03:21:29.945Z,14.21
2018-04-16T03:22:29.931Z,14.22
2018-04-16T03:23:29.921Z,14.22
2018-04-16T03:24:30.169Z,14.28
2018-04-16T03:25:30.167Z,14.27
2018-04-16T03:26:30.163Z,14.33
2018-04-16T03:27:30.165Z,14.25
2018-04-16T03:28:30.145Z,14.32
2018-04-16T03:29:30.143Z,14.28
2018-04-16T03:30:29.880Z,14.28
2018-04-16T03:31:30.130Z,14.27
2018-04-16T03:32:30.123Z,14.29
2018-04-16T03:33:30.114Z,14.28
2018-04-16T03:34:29.856Z,14.28
2018-04-16T03:35:30.106Z,14.29
2018-04-16T03:36:30.110Z,14.27
2018-04-16T03:37:30.096Z,14.33
2018-04-16T03:38:29.835Z,14.25
2018-04-16T03:39:30.123Z,14.36
2018-04-16T03:40:30.081Z,14.27
2018-04-16T03:41:30.069Z,14.29
2018-04-16T03:42:30.071Z,14.27
2018-04-16T03:43:30.062Z,14.25
2018-04-16T03:44:30.051Z,14.25
2018-04-16T03:45:30.047Z,14.25
2018-04-16T03:46:29.788Z,14.36
2018-04-16T03:47:30.036Z,14.33
2018-04-16T03:48:30.030Z,14.22
2018-04-16T03:49:29.772Z,14.32
2018-04-16T03:50:29.770Z,14.29
2018-04-16T03:51:30.013Z,14.22
2018-04-16T03:52:30.005Z,14.22
2018-04-16T03:53:30.000Z,14.25
2018-04-16T03:54:29.996Z,14.18
2018-04-16T03:55:29.757Z,14.25
2018-04-16T03:56:29.995Z,14.2
2018-04-16T03:57:29.748Z,14.17
2018-04-16T03:58:29.977Z,14.18
2018-04-16T03:59:29.735Z,14.21
2018-04-16T04:00:29.964Z,14.22
2018-04-16T04:01:29.704Z,14.2
2018-04-16T04:02:29.442Z,14.2
2018-04-16T04:03:29.943Z,14.2
2018-04-16T04:04:29.968Z,14.2
2018-04-16T04:05:29.930Z,14.18
2018-04-16T04:06:29.671Z,14.2
2018-04-16T04:07:29.923Z,14.18
2018-04-16T04:08:29.661Z,14.17
2018-04-16T04:09:29.658Z,14.21
2018-04-16T04:10:29.908Z,14.17
2018-04-16T04:11:29.897Z,14.17
2018-04-16T04:12:29.895Z,14.14
2018-04-16T04:13:29.895Z,14.12
2018-04-16T04:14:29.624Z,14.21
2018-04-16T04:15:29.619Z,14.22
2018-04-16T04:16:29.867Z,14.24
2018-04-16T04:17:29.857Z,14.21
2018-04-16T04:18:29.860Z,14.22
2018-04-16T04:19:29.853Z,14.24
2018-04-16T04:20:29.845Z,14.24
2018-04-16T04:21:29.583Z,14.29
2018-04-16T04:22:29.836Z,14.35
2018-04-16T04:23:29.825Z,14.27
2018-04-16T04:24:29.818Z,14.27
2018-04-16T04:25:29.817Z,14.2
2018-04-16T04:26:29.809Z,14.29
2018-04-16T04:27:29.810Z,14.35
2018-04-16T04:28:29.801Z,14.28
2018-04-16T04:29:29.552Z,14.37
2018-04-16T04:30:29.279Z,14.32
2018-04-16T04:31:29.526Z,14.29
2018-04-16T04:32:29.773Z,14.36
2018-04-16T04:33:29.770Z,14.21
2018-04-16T04:34:29.509Z,14.25
2018-04-16T04:35:29.753Z,14.25
2018-04-16T04:36:29.750Z,14.29
2018-04-16T04:37:29.490Z,14.27
2018-04-16T04:38:29.739Z,14.25
2018-04-16T04:39:29.731Z,14.2
2018-04-16T04:40:29.728Z,14.35
2018-04-16T04:41:29.721Z,14.27
2018-04-16T04:42:29.461Z,14.39
2018-04-16T04:43:29.734Z,14.39
2018-04-16T04:44:29.455Z,14.4
2018-04-16T04:45:29.698Z,14.43
2018-04-16T04:46:29.444Z,14.35
2018-04-16T04:47:29.433Z,14.36
2018-04-16T04:48:29.691Z,14.4
2018-04-16T04:49:29.423Z,14.46
2018-04-16T04:50:29.670Z,14.47
2018-04-16T04:51:29.670Z,14.46
2018-04-16T04:52:29.658Z,14.47
2018-04-16T04:53:29.651Z,14.43
2018-04-16T04:54:29.646Z,14.43
2018-04-16T04:55:29.640Z,14.42
2018-04-16T04:56:29.634Z,14.5
2018-04-16T04:57:29.675Z,14.58
2018-04-16T04:58:29.627Z,14.54
2018-04-16T04:59:29.363Z,14.47
2018-04-16T05:00:29.613Z,14.51
2018-04-16T05:01:29.620Z,14.55
2018-04-16T05:02:29.614Z,14.62
2018-04-16T05:03:29.594Z,14.54
2018-04-16T05:04:29.334Z,14.57
2018-04-16T05:05:29.585Z,14.54
2018-04-16T05:06:29.616Z,14.54
2018-04-16T05:07:29.351Z,14.58
2018-04-16T05:08:29.313Z,14.55
2018-04-16T05:09:29.309Z,14.54
2018-04-16T05:10:29.556Z,14.58
2018-04-16T05:11:29.553Z,14.55
2018-04-16T05:12:29.546Z,14.6
2018-04-16T05:13:29.542Z,14.54
2018-04-16T05:14:29.026Z,14.62
2018-04-16T05:15:29.272Z,14.58
2018-04-16T05:16:29.289Z,14.51
2018-04-16T05:17:29.525Z,14.52
2018-04-16T05:18:29.515Z,14.52
2018-04-16T05:19:29.505Z,14.45
2018-04-16T05:20:29.244Z,14.4
2018-04-16T05:21:29.495Z,14.42
2018-04-16T05:22:29.234Z,14.42
2018-04-16T05:23:29.482Z,14.43
2018-04-16T05:24:29.527Z,14.39
2018-04-16T05:25:29.470Z,14.37
2018-04-16T05:26:29.469Z,14.36
2018-04-16T05:27:29.461Z,14.25
2018-04-16T05:28:29.456Z,14.37
2018-04-16T05:29:29.452Z,14.4
2018-04-16T05:30:29.451Z,14.36
2018-04-16T05:31:29.437Z,14.36
2018-04-16T05:32:29.553Z,14.33
2018-04-16T05:33:29.423Z,14.36
2018-04-16T05:34:29.418Z,14.27
2018-04-16T05:35:29.414Z,14.27
2018-04-16T05:36:29.154Z,14.27
2018-04-16T05:37:29.150Z,14.28
2018-04-16T05:38:29.402Z,14.28
2018-04-16T05:39:29.161Z,14.28
2018-04-16T05:40:29.393Z,14.29
2018-04-16T05:41:29.128Z,14.28
2018-04-16T05:42:29.435Z,14.36
2018-04-16T05:43:29.117Z,14.33
2018-04-16T05:44:28.857Z,14.25
2018-04-16T05:45:29.362Z,14.27
2018-04-16T05:46:29.349Z,14.35
2018-04-16T05:47:29.361Z,14.35
2018-04-16T05:48:29.338Z,14.25
2018-04-16T05:49:29.332Z,14.22
2018-04-16T05:50:29.327Z,14.22
2018-04-16T05:51:29.326Z,14.25
2018-04-16T05:52:29.329Z,14.22
2018-04-16T05:53:29.309Z,14.25
2018-04-16T05:54:29.304Z,14.21
2018-04-16T05:55:29.296Z,14.17
2018-04-16T05:56:29.295Z,14.18
2018-04-16T05:57:29.312Z,14.2
2018-04-16T05:58:29.291Z,14.22
2018-04-16T05:59:29.026Z,14.2
2018-04-16T06:00:29.453Z,14.14
2018-04-16T06:01:29.269Z,14.17
2018-04-16T06:02:29.262Z,14.18
2018-04-16T06:03:29.269Z,14.18
2018-04-16T06:04:29.538Z,14.2
2018-04-16T06:05:29.254Z,14.21
2018-04-16T06:06:29.290Z,14.2
2018-04-16T06:07:28.976Z,14.22
2018-04-16T06:08:29.253Z,14.15
2018-04-16T06:09:28.965Z,14.15
2018-04-16T06:10:28.957Z,14.14
2018-04-16T06:11:28.955Z,14.12
2018-04-16T06:12:29.199Z,14.12
2018-04-16T06:13:28.692Z,14.14
2018-04-16T06:14:28.685Z,14.12
2018-04-16T06:15:29.195Z,14.07
2018-04-16T06:16:28.924Z,14.14
2018-04-16T06:17:28.923Z,14.14
2018-04-16T06:18:29.168Z,14.12
2018-04-16T06:19:29.157Z,14.17
2018-04-16T06:20:29.153Z,14.15
2018-04-16T06:21:28.904Z,14.15
2018-04-16T06:22:28.900Z,14.17
2018-04-16T06:23:29.144Z,14.12
2018-04-16T06:24:28.878Z,14.14
2018-04-16T06:25:29.129Z,14.12
2018-04-16T06:26:29.148Z,14.1
2018-04-16T06:27:29.368Z,14.12
2018-04-16T06:28:29.113Z,14.07
2018-04-16T06:29:29.105Z,14.14
2018-04-16T06:30:29.131Z,14.15
2018-04-16T06:31:29.172Z,14.03
2018-04-16T06:32:29.097Z,14.07
2018-04-16T06:33:29.080Z,14.17
2018-04-16T06:34:28.822Z,14.1
2018-04-16T06:35:29.092Z,14.06
2018-04-16T06:36:29.060Z,14.04
2018-04-16T06:37:29.054Z,14.07
2018-04-16T06:38:29.052Z,14.03
2018-04-16T06:39:28.798Z,13.97
2018-04-16T06:40:28.788Z,14.07
2018-04-16T06:41:28.779Z,13.97
2018-04-16T06:42:29.194Z,13.97
2018-04-16T06:43:28.788Z,13.88
2018-04-16T06:44:29.020Z,13.96
2018-04-16T06:45:29.005Z,13.89
2018-04-16T06:46:29.004Z,13.89
2018-04-16T06:47:28.993Z,13.82
2018-04-16T06:48:28.990Z,13.79
2018-04-16T06:49:28.730Z,13.77
2018-04-16T06:50:28.980Z,13.78
2018-04-16T06:51:28.976Z,13.66
2018-04-16T06:52:28.975Z,13.55
2018-04-16T06:53:28.971Z,13.67
2018-04-16T06:54:28.981Z,13.62
2018-04-16T06:55:28.957Z,13.64
2018-04-16T06:56:28.988Z,13.63
2018-04-16T06:57:28.943Z,13.57
2018-04-16T06:58:28.935Z,13.62
2018-04-16T06:59:28.676Z,13.66
2018-04-16T07:00:28.691Z,13.67
2018-04-16T07:01:28.951Z,13.7
2018-04-16T07:02:28.419Z,13.69
2018-04-16T07:03:28.931Z,13.71
2018-04-16T07:04:28.910Z,13.71
2018-04-16T07:05:28.656Z,13.73
2018-04-16T07:06:28.681Z,13.78
2018-04-16T07:07:28.890Z,13.77
2018-04-16T07:08:28.910Z,13.77
2018-04-16T07:09:28.649Z,13.73
2018-04-16T07:10:28.868Z,13.71
2018-04-16T07:11:28.604Z,13.71
2018-04-16T07:12:28.859Z,13.78
2018-04-16T07:13:28.853Z,13.77
2018-04-16T07:14:28.585Z,13.84
2018-04-16T07:15:28.828Z,13.88
2018-04-16T07:16:28.597Z,13.88
2018-04-16T07:17:28.823Z,13.87
2018-04-16T07:18:28.817Z,13.85
2018-04-16T07:19:28.818Z,13.84
2018-04-16T07:20:28.293Z,13.85
2018-04-16T07:21:28.839Z,13.81
2018-04-16T07:22:28.808Z,13.88
2018-04-16T07:23:28.783Z,13.71
2018-04-16T07:24:28.812Z,13.79
2018-04-16T07:25:28.782Z,13.77
2018-04-16T07:26:28.782Z,13.77
2018-04-16T07:27:28.579Z,13.7
2018-04-16T07:28:28.513Z,13.73
2018-04-16T07:29:28.260Z,13.79
2018-04-16T07:30:28.781Z,13.75
2018-04-16T07:31:28.732Z,13.75
2018-04-16T07:32:28.736Z,13.73
2018-04-16T07:33:28.504Z,13.71
2018-04-16T07:34:28.471Z,13.67
2018-04-16T07:35:28.708Z,13.7
2018-04-16T07:36:28.707Z,13.66
2018-04-16T07:37:28.756Z,13.75
2018-04-16T07:38:28.715Z,13.75
2018-04-16T07:39:28.214Z,13.71
2018-04-16T07:40:28.448Z,13.66
2018-04-16T07:41:28.680Z,13.64
2018-04-16T07:42:28.415Z,13.63
2018-04-16T07:43:28.441Z,13.62
2018-04-16T07:44:28.174Z,13.67
2018-04-16T07:45:28.710Z,13.62
2018-04-16T07:46:28.641Z,13.67
2018-04-16T07:47:28.669Z,13.71
2018-04-16T07:48:28.422Z,13.73
2018-04-16T07:49:28.633Z,13.77
2018-04-16T07:50:28.625Z,13.77
2018-04-16T07:51:28.663Z,13.73
2018-04-16T07:52:28.605Z,13.73
2018-04-16T07:53:28.682Z,13.78
2018-04-16T07:54:28.607Z,13.75
2018-04-16T07:55:28.610Z,13.7
2018-04-16T07:56:28.598Z,13.77
2018-04-16T07:57:28.582Z,13.82
2018-04-16T07:58:28.574Z,13.84
2018-04-16T07:59:28.609Z,13.82
2018-04-16T08:00:28.565Z,13.82
2018-04-16T08:01:28.671Z,13.85
2018-04-16T08:02:28.563Z,13.77
2018-04-16T08:03:28.566Z,13.71
2018-04-16T08:04:28.294Z,13.79
2018-04-16T08:05:28.554Z,13.85
2018-04-16T08:06:28.277Z,13.88
2018-04-16T08:07:28.523Z,13.89
2018-04-16T08:08:28.264Z,13.91
2018-04-16T08:09:28.536Z,13.85
2018-04-16T08:10:28.509Z,13.81
2018-04-16T08:11:28.262Z,13.84
2018-04-16T08:12:28.550Z,13.82
2018-04-16T08:13:28.500Z,13.77
2018-04-16T08:14:28.492Z,13.73
2018-04-16T08:15:28.488Z,13.7
2018-04-16T08:16:28.480Z,13.71
2018-04-16T08:17:28.462Z,13.78
2018-04-16T08:18:28.221Z,13.75
2018-04-16T08:19:28.216Z,13.77
2018-04-16T08:20:28.480Z,13.73
2018-04-16T08:21:28.441Z,13.75
2018-04-16T08:22:28.448Z,13.78
2018-04-16T08:23:28.430Z,13.73
2018-04-16T08:24:28.170Z,13.75
2018-04-16T08:25:28.416Z,13.77
2018-04-16T08:26:28.181Z,13.78
2018-04-16T08:27:28.439Z,13.71
2018-04-16T08:28:28.435Z,13.75
2018-04-16T08:29:27.913Z,13.71
2018-04-16T08:30:28.400Z,13.71
2018-04-16T08:31:28.383Z,13.71
2018-04-16T08:32:28.406Z,13.7
2018-04-16T08:33:28.374Z,13.66
2018-04-16T08:34:27.855Z,13.66
2018-04-16T08:35:28.360Z,13.63
2018-04-16T08:36:28.361Z,13.64
2018-04-16T08:37:28.356Z,13.6
2018-04-16T08:38:28.387Z,13.6
2018-04-16T08:39:28.375Z,13.66
2018-04-16T08:40:28.107Z,13.66
2018-04-16T08:41:28.067Z,13.64
2018-04-16T08:42:28.345Z,13.67
2018-04-16T08:43:28.055Z,13.78
2018-04-16T08:44:28.316Z,13.73
2018-04-16T08:45:28.310Z,13.7
2018-04-16T08:46:28.299Z,13.75
2018-04-16T08:47:28.310Z,13.81
2018-04-16T08:48:28.286Z,13.75
2018-04-16T08:49:28.306Z,13.79
2018-04-16T08:50:28.278Z,13.77
2018-04-16T08:51:28.267Z,13.82
2018-04-16T08:52:28.268Z,13.81
2018-04-16T08:53:28.314Z,13.84
2018-04-16T08:54:28.269Z,13.82
2018-04-16T08:55:28.244Z,13.91
2018-04-16T08:56:28.245Z,13.99
2018-04-16T08:57:28.235Z,14.03
2018-04-16T08:58:28.219Z,14.18
2018-04-16T08:59:27.712Z,14.17
2018-04-16T09:00:28.230Z,14.25
2018-04-16T09:01:28.220Z,14.32
2018-04-16T09:02:28.206Z,14.2
2018-04-16T09:03:28.238Z,14.33
2018-04-16T09:04:28.246Z,14.22
2018-04-16T09:05:28.188Z,14.36
2018-04-16T09:06:28.184Z,14.35
2018-04-16T09:07:28.180Z,14.24
2018-04-16T09:08:28.177Z,14.24
2018-04-16T09:09:28.167Z,14.37
2018-04-16T09:10:28.200Z,14.39
2018-04-16T09:11:28.173Z,14.36
2018-04-16T09:12:27.924Z,14.39
2018-04-16T09:13:27.635Z,14.47
2018-04-16T09:14:28.143Z,14.51
2018-04-16T09:15:28.131Z,14.52
2018-04-16T09:16:27.894Z,14.54
2018-04-16T09:17:28.217Z,14.45
2018-04-16T09:18:27.882Z,14.37
2018-04-16T09:19:27.942Z,14.24
2018-04-16T09:20:27.854Z,14.24
2018-04-16T09:21:28.112Z,14.28
2018-04-16T09:22:27.841Z,14.25
2018-04-16T09:23:28.110Z,14.27
2018-04-16T09:24:28.118Z,14.24
2018-04-16T09:25:28.079Z,14.4
2018-04-16T09:26:28.081Z,14.51
2018-04-16T09:27:28.102Z,14.54
2018-04-16T09:28:28.065Z,14.64
2018-04-16T09:29:27.816Z,14.84
2018-04-16T09:30:27.820Z,14.88
2018-04-16T09:31:28.052Z,14.98
2018-04-16T09:32:28.043Z,14.86
2018-04-16T09:33:28.038Z,15.02
2018-04-16T09:34:28.066Z,14.99
2018-04-16T09:35:28.092Z,15.01
2018-04-16T09:36:28.056Z,15.11
2018-04-16T09:37:28.045Z,15.19
2018-04-16T09:38:28.019Z,15.17
2018-04-16T09:39:27.802Z,15.19
2018-04-16T09:40:27.765Z,15.25
2018-04-16T09:41:27.790Z,15.27
2018-04-16T09:42:28.000Z,15.34
2018-04-16T09:43:27.992Z,15.34
2018-04-16T09:44:27.998Z,15.36
2018-04-16T09:45:28.002Z,15.43
2018-04-16T09:46:27.995Z,15.64
2018-04-16T09:47:27.982Z,15.68
2018-04-16T09:48:27.975Z,15.75
2018-04-16T09:49:27.522Z,15.74
2018-04-16T09:50:27.807Z,15.94
2018-04-16T09:51:27.969Z,16.02
2018-04-16T09:52:27.964Z,16.01
2018-04-16T09:53:27.722Z,16.02
2018-04-16T09:54:27.695Z,16.04
2018-04-16T09:55:27.946Z,16.07
2018-04-16T09:56:27.949Z,16.24
2018-04-16T09:57:27.943Z,16.31
2018-04-16T09:58:27.985Z,16.49
2018-04-16T09:59:27.955Z,16.46
2018-04-16T10:00:27.985Z,16.45
2018-04-16T10:01:27.924Z,16.48
2018-04-16T10:02:27.921Z,16.5
2018-04-16T10:03:27.919Z,16.53
2018-04-16T10:04:27.982Z,16.64
2018-04-16T10:05:27.681Z,16.66
2018-04-16T10:06:27.939Z,16.75
2018-04-16T10:07:27.932Z,16.88
2018-04-16T10:08:27.924Z,16.81
2018-04-16T10:09:27.908Z,16.89
2018-04-16T10:10:27.898Z,16.96
2018-04-16T10:11:27.437Z,17.12
2018-04-16T10:12:27.911Z,17.12
2018-04-16T10:13:27.892Z,17.19
2018-04-16T10:14:27.682Z,17.3
2018-04-16T10:15:27.668Z,17.41
2018-04-16T10:16:27.890Z,17.37
2018-04-16T10:17:27.634Z,17.48
2018-04-16T10:18:27.895Z,17.48
2018-04-16T10:19:27.902Z,17.49
2018-04-16T10:20:27.865Z,17.49
2018-04-16T10:21:27.370Z,17.46
2018-04-16T10:22:28.159Z,17.51
2018-04-16T10:23:27.616Z,17.51
2018-04-16T10:24:27.852Z,17.43
2018-04-16T10:25:27.861Z,17.4
2018-04-16T10:26:27.941Z,17.4
2018-04-16T10:27:27.858Z,17.37
2018-04-16T10:28:27.843Z,17.33
2018-04-16T10:29:27.858Z,17.43
2018-04-16T10:30:27.885Z,17.54
2018-04-16T10:31:27.836Z,17.56
2018-04-16T10:32:27.982Z,17.54
2018-04-16T10:33:27.840Z,17.64
2018-04-16T10:34:27.868Z,17.56
2018-04-16T10:35:27.569Z,17.55
2018-04-16T10:36:27.818Z,17.64
2018-04-16T10:37:27.833Z,17.66
2018-04-16T10:38:27.305Z,17.7
2018-04-16T10:39:27.837Z,17.62
2018-04-16T10:40:27.601Z,17.63
2018-04-16T10:41:27.826Z,17.7
2018-04-16T10:42:27.808Z,17.64
2018-04-16T10:43:27.551Z,17.72
2018-04-16T10:44:27.808Z,17.77
2018-04-16T10:45:27.796Z,17.87
2018-04-16T10:46:27.561Z,17.93
2018-04-16T10:47:27.293Z,17.95
2018-04-16T10:48:27.804Z,18.08
2018-04-16T10:49:27.528Z,18.14
2018-04-16T10:50:27.791Z,18.25
2018-04-16T10:51:27.532Z,18.23
2018-04-16T10:52:27.774Z,18.27
2018-04-16T10:53:27.548Z,18.27
2018-04-16T10:54:27.572Z,18.35
2018-04-16T10:55:27.769Z,18.5
2018-04-16T10:56:27.766Z,18.51
2018-04-16T10:57:27.766Z,18.6
2018-04-16T10:58:27.762Z,18.76
2018-04-16T10:59:27.788Z,18.9
2018-04-16T11:00:27.768Z,18.94
2018-04-16T11:01:27.765Z,18.98
2018-04-16T11:02:27.499Z,19.04
2018-04-16T11:03:27.755Z,18.98
2018-04-16T11:04:27.515Z,18.99
2018-04-16T11:05:27.753Z,18.98
2018-04-16T11:06:27.755Z,19.04
2018-04-16T11:07:27.746Z,18.94
2018-04-16T11:08:27.753Z,19.07
2018-04-16T11:09:27.753Z,19.14
2018-04-16T11:10:27.786Z,19.26
2018-04-16T11:11:27.742Z,19.36
2018-04-16T11:12:27.737Z,19.29
2018-04-16T11:13:27.760Z,19.23
2018-04-16T11:14:27.767Z,19.25
2018-04-16T11:15:27.512Z,19.33
2018-04-16T11:16:27.740Z,19.33
2018-04-16T11:17:27.771Z,19.47
2018-04-16T11:18:27.736Z,19.55
2018-04-16T11:19:27.726Z,19.65
2018-04-16T11:20:27.729Z,19.8
2018-04-16T11:21:27.784Z,19.73
2018-04-16T11:22:27.533Z,19.76
2018-04-16T11:23:27.490Z,19.74
2018-04-16T11:24:27.506Z,19.92
2018-04-16T11:25:27.749Z,20.05
2018-04-16T11:26:27.806Z,20.14
2018-04-16T11:27:27.727Z,20.17
2018-04-16T11:28:27.713Z,20.05
2018-04-16T11:29:27.730Z,20.05
2018-04-16T11:30:27.459Z,20.11
2018-04-16T11:31:27.728Z,20.14
2018-04-16T11:32:27.477Z,20.18
2018-04-16T11:33:27.718Z,20.06
2018-04-16T11:34:27.459Z,20.21
2018-04-16T11:35:27.456Z,20.17
2018-04-16T11:36:27.720Z,20.23
2018-04-16T11:37:27.737Z,20.32
2018-04-16T11:38:27.465Z,20.42
2018-04-16T11:39:27.462Z,20.57
2018-04-16T11:40:27.716Z,20.67
2018-04-16T11:41:27.738Z,20.82
2018-04-16T11:42:27.697Z,20.97
2018-04-16T11:43:27.445Z,21.09
2018-04-16T11:44:27.470Z,21.04
2018-04-16T11:45:27.752Z,21.19
2018-04-16T11:46:27.704Z,21.29
2018-04-16T11:47:27.715Z,21.49
2018-04-16T11:48:27.448Z,21.61
2018-04-16T11:49:27.700Z,21.69
2018-04-16T11:50:27.702Z,21.79
2018-04-16T11:51:27.947Z,21.94
2018-04-16T11:52:27.710Z,22
2018-04-16T11:53:27.709Z,22.15
2018-04-16T11:54:27.708Z,22.35
2018-04-16T11:55:27.713Z,22.42
2018-04-16T11:56:27.441Z,22.51
2018-04-16T11:57:27.787Z,22.64
2018-04-16T11:58:27.215Z,22.79
2018-04-16T11:59:27.751Z,22.8
2018-04-16T12:00:27.465Z,22.7
2018-04-16T12:01:27.735Z,22.6
2018-04-16T12:02:27.707Z,22.49
2018-04-16T12:03:27.716Z,22.55
2018-04-16T12:04:28.196Z,22.55
2018-04-16T12:05:27.706Z,22.57
2018-04-16T12:06:27.701Z,22.49
2018-04-16T12:07:27.485Z,22.47
2018-04-16T12:08:27.757Z,22.55
2018-04-16T12:09:27.464Z,22.51
2018-04-16T12:10:27.577Z,22.51
2018-04-16T12:11:27.720Z,22.54
2018-04-16T12:12:27.210Z,22.49
2018-04-16T12:13:27.703Z,22.49
2018-04-16T12:14:27.447Z,22.61
2018-04-16T12:15:27.709Z,22.62
2018-04-16T12:16:27.204Z,22.68
2018-04-16T12:17:27.702Z,22.76
2018-04-16T12:18:27.473Z,22.82
2018-04-16T12:19:27.719Z,22.86
2018-04-16T12:20:27.713Z,22.85
2018-04-16T12:21:27.469Z,22.94
2018-04-16T12:22:27.813Z,22.95
2018-04-16T12:23:27.734Z,22.97
2018-04-16T12:24:27.734Z,22.95
2018-04-16T12:25:27.709Z,23.1
2018-04-16T12:26:27.455Z,23.1
2018-04-16T12:27:27.508Z,23.13
2018-04-16T12:28:27.468Z,23.19
2018-04-16T12:29:27.505Z,23.23
2018-04-16T12:30:27.724Z,23.17
2018-04-16T12:31:27.462Z,23.22
2018-04-16T12:32:27.461Z,23.17
2018-04-16T12:33:27.746Z,23.2
2018-04-16T12:34:27.771Z,23.2
2018-04-16T12:35:27.473Z,23.12
2018-04-16T12:36:27.717Z,23.12
2018-04-16T12:37:27.217Z,22.94
2018-04-16T12:38:27.229Z,22.91
2018-04-16T12:39:27.727Z,22.92
2018-04-16T12:40:27.726Z,22.98
2018-04-16T12:41:27.491Z,22.94
2018-04-16T12:42:27.489Z,22.91
2018-04-16T12:43:27.757Z,22.92
2018-04-16T12:44:27.499Z,22.83
2018-04-16T12:45:27.726Z,22.82
2018-04-16T12:46:27.719Z,22.85
2018-04-16T12:47:27.730Z,22.86
2018-04-16T12:48:27.217Z,22.88
2018-04-16T12:49:27.731Z,22.86
2018-04-16T12:50:27.720Z,22.9
2018-04-16T12:51:27.739Z,22.75
2018-04-16T12:52:27.479Z,22.64
2018-04-16T12:53:27.732Z,22.77
2018-04-16T12:54:27.739Z,22.7
2018-04-16T12:55:27.756Z,22.76